Historique des mesures à Cassis (13260), France
Quotidien Résumé Novembre 19, 2017 Unités:  Métrique    US   Métrique/US
« Précédent (Jour)
Suivant (Jour) »
Quotidien Hebdomadaire Mensuel Annuel Période au choix
  Maximum: Minimum: Moyenne:
Température: TemperatureC °C 6.4 °C 10.4 °C
Point de rosée: DewpointC °C -1.2 °C 2.2 °C
Humidité: Humidity % 46 % 54 %
Vitesse du vent: 0 km/h 0 km/h 21.6 km/h
Rafales: 0 km/h - -
Vent:- - SSW
Pression: PressurehPa hPa 1009.4 hPa -
Précipitations: 0.0 mm    
Historical Graphs
 
 
Mesures pour : Novembre 19, 2017
Heure Temperature Point de rosée Pression Vent Vitesse du vent Rafales Humidité Pluie (par heure) Conditions
TemperatureC °C DewpointC °C PressurehPa hPa Calm     Humidity % HourlyPrecipMM mm SoftwareType W/m2
00:10 9.2 °C 2.3 °C 1014.4 hPa Calm   5.6 km/h 62 % 0.0 mm open2300-1.11 W/m2
01:11 9.2 °C 1.9 °C 1014.1 hPa North 8 km/h 8 km/h 60 % 0.0 mm open2300-1.11 W/m2
02:10 8.6 °C 0.8 °C 1013.4 hPa NNE 2.3 km/h 11.6 km/h 58 % 0.0 mm open2300-1.11 W/m2
03:11 8.7 °C 0.6 °C 1013.1 hPa WNW 13.2 km/h 26.7 km/h 57 % 0.0 mm open2300-1.11 W/m2
05:11 6.7 °C -0.1 °C 1012.8 hPa East 5.1 km/h 5.1 km/h 62 % 0.0 mm open2300-1.11 W/m2
06:10 6.4 °C -0.2 °C 1012.4 hPa Calm     63 % 0.0 mm open2300-1.11 W/m2
07:11 7.0 °C -1.2 °C 1012.4 hPa WNW 24.8 km/h 24.8 km/h 56 % 0.0 mm open2300-1.11 W/m2
09:11 9.9 °C -1.2 °C 1012.4 hPa WNW 26.7 km/h 26.7 km/h 46 % 0.0 mm open2300-1.11 W/m2
10:10 10.3 °C -0.3 °C 1012.8 hPa West 17.4 km/h 23 km/h 48 % 0.0 mm open2300-1.11 W/m2
11:11 10.5 °C 1.1 °C 1012.4 hPa NW 47.3 km/h 47.3 km/h 52 % 0.0 mm open2300-1.11 W/m2
12:10 11.8 °C 1.7 °C 1010.7 hPa NW 56.6 km/h 57.3 km/h 50 % 0.0 mm open2300-1.11 W/m2
13:11 13.0 °C 2.8 °C 1009.7 hPa NW 40.7 km/h 46.8 km/h 50 % 0.0 mm open2300-1.11 W/m2
14:10 14.8 °C 3.9 °C 1009.4 hPa NNW 48.1 km/h 48.1 km/h 48 % 0.0 mm open2300-1.11 W/m2
15:11 15.1 °C 4.8 °C 1010.7 hPa NW 48.1 km/h 54.4 km/h 50 % 0.0 mm open2300-1.11 W/m2
16:10 14.6 °C 5.1 °C 1011.7 hPa NNW 16.9 km/h 54.9 km/h 53 % 0.0 mm open2300-1.11 W/m2
17:11 13.4 °C 4.8 °C 1011.7 hPa North 19.6 km/h 24.8 km/h 56 % 0.0 mm open2300-1.11 W/m2
18:10 12.4 °C 4.6 °C 1011.7 hPa NNW 35.2 km/h 46.8 km/h 59 % 0.0 mm open2300-1.11 W/m2
19:11 11.8 °C 4.5 °C 1011.7 hPa NNE 27.7 km/h 54.4 km/h 61 % 0.0 mm open2300-1.11 W/m2
20:10 11.9 °C 4.4 °C 1012.4 hPa North 30.7 km/h 34.8 km/h 60 % 0.0 mm open2300-1.11 W/m2
21:11 11.6 °C 3.8 °C 1012.4 hPa North 26.2 km/h 51.5 km/h 59 % 0.0 mm open2300-1.11 W/m2
22:10 11.2 °C 3.7 °C 1014.4 hPa Calm     60 % 0.0 mm open2300-1.11 W/m2
23:11 10.4 °C 3.4 °C 1015.1 hPa Calm     62 % 0.0 mm open2300-1.11 W/m2
Observations météo à CASSIS
WU-History script by Weather Underground - 1 mb